Time;durP1;ratioP1;P1;durP2;ratioP2;P2;SDS_P1;SDS_P2;PMS_P1;PMS_P2;Temp;Humidity;BMP_temperature;BMP_pressure;BME280_temperature;BME280_humidity;BME280_pressure;Samples;Min_cycle;Max_cycle;Signal;HPM_P1;HPM_P2
2023/12/04 00:07:22;;;;;;;27.83;14.70;;;;;;;;;;20838023;28;20327;-70
2023/12/04 00:17:24;;;;;;;31.20;15.63;;;;;;;;;;20837724;28;20299;-67
2023/12/04 00:27:27;;;;;;;31.37;14.37;;;;;;;;;;20836987;28;20616;-68
2023/12/04 00:37:29;;;;;;;30.17;15.60;;;;;;;;;;20835036;28;20208;-67
2023/12/04 00:47:32;;;;;;;31.57;15.70;;;;;;;;;;20834946;28;20294;-67
2023/12/04 00:57:35;;;;;;;27.93;15.13;;;;;;;;;;20834759;28;20207;-68
2023/12/04 01:07:37;;;;;;;30.03;15.30;;;;;;;;;;20833313;28;20243;-68
2023/12/04 01:17:39;;;;;;;30.03;15.77;;;;;;;;;;20832933;28;20234;-69
2023/12/04 01:27:41;;;;;;;26.57;14.80;;;;;;;;;;20832495;28;20240;-70
2023/12/04 01:37:43;;;;;;;29.73;13.80;;;;;;;;;;20831576;28;20281;-70
2023/12/04 01:47:46;;;;;;;32.07;15.20;;;;;;;;;;20845977;28;20298;-70
2023/12/04 01:57:49;;;;;;;29.57;14.77;;;;;;;;;;20830921;28;20208;-68
2023/12/04 02:07:52;;;;;;;30.43;14.33;;;;;;;;;;20829669;28;20302;-69
2023/12/04 02:17:54;;;;;;;30.87;15.27;;;;;;;;;;20829671;28;20285;-67
2023/12/04 02:27:58;;;;;;;28.87;14.73;;;;;;;;;;20829571;28;20738;-68
2023/12/04 02:38:01;;;;;;;25.50;13.97;;;;;;;;;;20828682;28;20307;-67
2023/12/04 02:48:04;;;;;;;29.33;13.73;;;;;;;;;;20828355;28;20240;-68
2023/12/04 02:58:06;;;;;;;30.93;14.67;;;;;;;;;;20849537;28;20200;-68
2023/12/04 03:08:08;;;;;;;25.33;13.70;;;;;;;;;;20863374;28;20338;-67
2023/12/04 03:18:10;;;;;;;27.33;14.03;;;;;;;;;;20842302;28;20310;-67
2023/12/04 03:28:15;;;;;;;26.33;14.13;;;;;;;;;;20841833;28;20698;-68
2023/12/04 03:38:17;;;;;;;25.80;13.90;;;;;;;;;;20840898;28;20313;-68
2023/12/04 03:48:19;;;;;;;23.53;13.20;;;;;;;;;;20840017;28;20239;-68
2023/12/04 03:58:22;;;;;;;26.23;13.60;;;;;;;;;;20839696;28;20208;-68
2023/12/04 04:08:24;;;;;;;26.00;14.00;;;;;;;;;;20838101;28;20335;-68
2023/12/04 04:18:26;;;;;;;24.70;13.83;;;;;;;;;;20837657;28;20572;-67
2023/12/04 04:28:29;;;;;;;25.83;13.77;;;;;;;;;;20837184;28;20244;-66
2023/12/04 04:38:31;;;;;;;26.20;13.27;;;;;;;;;;20835991;28;20233;-67
2023/12/04 04:48:33;;;;;;;24.77;12.97;;;;;;;;;;20835135;28;20268;-68
2023/12/04 04:58:35;;;;;;;25.50;13.43;;;;;;;;;;20834887;28;20661;-68
2023/12/04 05:08:37;;;;;;;26.17;13.90;;;;;;;;;;20833102;28;20727;-67
2023/12/04 05:18:39;;;;;;;25.20;13.50;;;;;;;;;;20832535;28;20287;-67
2023/12/04 05:28:42;;;;;;;25.97;13.73;;;;;;;;;;20832672;28;20243;-69
2023/12/04 05:38:44;;;;;;;23.17;12.70;;;;;;;;;;20831337;28;20201;-67
2023/12/04 05:48:46;;;;;;;23.90;13.33;;;;;;;;;;20857615;28;20246;-69
2023/12/04 05:58:48;;;;;;;22.17;12.50;;;;;;;;;;20920514;28;20217;-70
2023/12/04 06:08:50;;;;;;;22.10;12.10;;;;;;;;;;20957288;28;20271;-69
2023/12/04 06:18:52;;;;;;;24.60;12.47;;;;;;;;;;20993074;28;20213;-71
2023/12/04 06:28:55;;;;;;;21.37;12.00;;;;;;;;;;20994457;28;20324;-69
2023/12/04 06:38:58;;;;;;;22.50;12.20;;;;;;;;;;21010101;28;20218;-72
2023/12/04 06:49:00;;;;;;;24.87;12.23;;;;;;;;;;21008777;28;20266;-72
2023/12/04 06:59:03;;;;;;;21.47;11.80;;;;;;;;;;21008503;28;20208;-70
2023/12/04 07:09:09;;;;;;;23.00;12.17;;;;;;;;;;21006957;28;20334;-72
2023/12/04 07:19:13;;;;;;;22.13;12.63;;;;;;;;;;20989086;28;20226;-70
2023/12/04 07:29:16;;;;;;;20.77;11.90;;;;;;;;;;20882821;28;20242;-70
2023/12/04 07:39:18;;;;;;;21.37;11.77;;;;;;;;;;20883976;28;20204;-71
2023/12/04 07:49:20;;;;;;;19.90;10.93;;;;;;;;;;20890810;28;20757;-72
2023/12/04 07:59:22;;;;;;;20.33;11.47;;;;;;;;;;20888811;28;20258;-72
2023/12/04 08:09:25;;;;;;;27.20;13.50;;;;;;;;;;20871649;28;20232;-71
2023/12/04 08:19:27;;;;;;;19.73;11.27;;;;;;;;;;20837131;28;20300;-81
2023/12/04 08:29:29;;;;;;;18.63;10.97;;;;;;;;;;20951943;28;20231;-76
2023/12/04 08:39:31;;;;;;;17.90;10.20;;;;;;;;;;21000433;28;20214;-69
2023/12/04 08:49:34;;;;;;;24.37;11.57;;;;;;;;;;20999747;28;20237;-69
2023/12/04 08:59:46;;;;;;;18.27;10.23;;;;;;;;;;20998571;28;20211;-70
2023/12/04 09:09:49;;;;;;;15.37;9.27;;;;;;;;;;20998066;28;20239;-69
2023/12/04 09:19:51;;;;;;;18.57;10.43;;;;;;;;;;20996484;28;20215;-69
2023/12/04 09:29:55;;;;;;;14.87;9.30;;;;;;;;;;20935303;28;20228;-70
2023/12/04 09:39:58;;;;;;;17.00;9.50;;;;;;;;;;20913560;28;20214;-71
2023/12/04 09:50:00;;;;;;;17.47;9.17;;;;;;;;;;20913033;28;20672;-71
2023/12/04 10:00:04;;;;;;;15.53;9.83;;;4.60;78.40;;;;;;20912981;28;20639;-71
2023/12/04 10:10:07;;;;;;;18.43;9.20;;;;;;;;;;20911811;28;20247;-68
2023/12/04 10:20:12;;;;;;;17.37;8.70;;;;;;;;;;20910646;28;20745;-71
2023/12/04 10:30:35;;;;;;;27.93;8.63;;;2.10;73.90;;;;;;20974832;28;20261;-74
2023/12/04 10:40:37;;;;;;;14.53;9.30;;;;;;;;;;20993881;28;20211;-72
2023/12/04 10:50:44;;;;;;;20.50;9.00;;;-0.60;69.80;;;;;;20993165;28;20234;-69
2023/12/04 11:00:48;;;;;;;17.13;10.10;;;3.40;73.60;;;;;;20992837;28;20207;-70
2023/12/04 11:11:01;;;;;;;12.87;7.80;;;1.70;72.30;;;;;;20992493;28;20270;-68
2023/12/04 11:21:12;;;;;;;19.37;9.00;;;1.20;71.60;;;;;;21002088;28;20210;-69
2023/12/04 11:31:15;;;;;;;14.03;8.13;;;4.40;74.10;;;;;;20934453;28;20322;-69
2023/12/04 11:41:22;;;;;;;16.90;8.73;;;2.60;71.80;;;;;;20922708;28;20631;-69
2023/12/04 11:51:57;;;;;;;14.10;8.77;;;2.20;71.70;;;;;;20920571;28;20318;-69
2023/12/04 12:02:00;;;;;;;15.23;8.50;;;2.10;71.80;;;;;;20919603;28;20616;-68
2023/12/04 12:12:03;;;;;;;12.97;8.23;;;3.10;72.50;;;;;;20920128;28;20262;-66
2023/12/04 12:22:05;;;;;;;14.03;8.40;;;;;;;;;;20919002;28;20254;-67
2023/12/04 12:32:08;;;;;;;14.30;8.33;;;;;;;;;;20997626;28;20326;-65
2023/12/04 12:42:10;;;;;;;16.37;9.00;;;;;;;;;;20931879;28;20208;-68
2023/12/04 12:52:13;;;;;;;14.83;8.73;;;;;;;;;;20917403;28;20275;-66
2023/12/04 13:02:16;;;;;;;16.23;8.20;;;;;;;;;;20915264;28;20206;-67
2023/12/04 13:12:18;;;;;;;13.83;9.07;;;;;;;;;;20915730;28;20294;-65
2023/12/04 13:22:21;;;;;;;25.70;9.63;;;;;;;;;;20914708;28;20206;-66
2023/12/04 13:32:23;;;;;;;13.57;8.43;;;;;;;;;;20995077;28;20236;-66
2023/12/04 13:52:54;;;;;;;15.43;8.87;;;;;;;;;;20995570;28;20231;-67
2023/12/04 14:03:03;;;;;;;14.30;8.60;;;;;;;;;;20995298;28;20637;-68
2023/12/04 14:13:07;;;;;;;20.70;9.50;;;;;;;;;;20952298;28;20238;-68
2023/12/04 14:23:09;;;;;;;17.73;9.03;;;;;;;;;;20915930;28;20849;-69
2023/12/04 14:33:11;;;;;;;15.57;9.53;;;;;;;;;;20993742;28;20322;-64
2023/12/04 14:43:14;;;;;;;15.47;8.93;;;;;;;;;;20994018;28;20241;-66
2023/12/04 14:53:28;;;;;;;17.53;9.40;;;;;;;;;;20977634;28;20234;-67
2023/12/04 15:13:56;;;;;;;17.03;9.40;;;;;;;;;;20925052;28;20657;-65
2023/12/04 15:23:58;;;;;;;20.20;9.77;;;;;;;;;;20923512;28;20304;-64
2023/12/04 15:34:01;;;;;;;20.70;10.70;;;4.30;83.90;;;;;;20922243;28;20231;-64
2023/12/04 15:44:03;;;;;;;18.87;10.20;;;;;;;;;;20923179;28;20200;-65
2023/12/04 15:54:06;;;;;;;15.67;9.57;;;;;;;;;;20921860;28;20298;-64
2023/12/04 16:04:08;;;;;;;17.73;10.07;;;;;;;;;;20920792;28;20201;-64
2023/12/04 16:14:10;;;;;;;18.37;10.23;;;;;;;;;;20920135;28;20309;-65
2023/12/04 16:24:12;;;;;;;20.03;11.13;;;;;;;;;;20920241;28;20294;-65
2023/12/04 16:34:14;;;;;;;20.27;10.77;;;;;;;;;;20918997;28;21340;-66
2023/12/04 16:44:17;;;;;;;19.63;11.23;;;;;;;;;;20917812;28;20215;-66
2023/12/04 16:54:19;;;;;;;21.90;10.33;;;;;;;;;;20917258;28;20267;-65
2023/12/04 17:04:22;;;;;;;19.63;10.20;;;;;;;;;;20916868;28;20209;-66
2023/12/04 17:14:25;;;;;;;23.77;12.07;;;;;;;;;;20915018;28;20698;-69
2023/12/04 17:24:27;;;;;;;18.63;11.43;;;;;;;;;;20915468;28;20243;-67
2023/12/04 17:34:30;;;;;;;21.80;12.17;;;-0.40;87.90;;;;;;20912958;28;20282;-70
2023/12/04 17:44:32;;;;;;;20.83;11.70;;;;;;;;;;20913726;28;20203;-70
2023/12/04 17:54:36;;;;;;;20.57;10.73;;;2.00;90.60;;;;;;20913594;28;20324;-69
2023/12/04 18:04:38;;;;;;;22.17;11.83;;;;;;;;;;20912650;28;20744;-72
2023/12/04 18:14:40;;;;;;;26.93;12.27;;;;;;;;;;20911728;28;20684;-75
2023/12/04 18:24:43;;;;;;;17.00;9.97;;;;;;;;;;20914059;28;20232;-77
2023/12/04 18:34:45;;;;;;;19.03;10.07;;;;;;;;;;20928957;28;20234;-80
2023/12/04 18:44:47;;;;;;;18.33;10.27;;;;;;;;;;20928441;28;20209;-75
2023/12/04 18:54:49;;;;;;;17.77;10.20;;;;;;;;;;20926037;28;20229;-66
2023/12/04 19:04:52;;;;;;;19.17;10.37;;;;;;;;;;20926385;28;20212;-69
2023/12/04 19:14:55;;;;;;;19.63;10.93;;;;;;;;;;20924960;28;20275;-68
2023/12/04 19:24:57;;;;;;;18.50;11.10;;;;;;;;;;20924849;28;20292;-68
2023/12/04 19:35:00;;;;;;;17.87;10.40;;;;;;;;;;20923214;28;20789;-69
2023/12/04 19:45:02;;;;;;;23.23;10.93;;;;;;;;;;20919518;28;20239;-73
2023/12/04 19:55:05;;;;;;;21.17;10.77;;;2.00;89.30;;;;;;20882073;28;20280;-66
2023/12/04 20:05:12;;;;;;;20.53;11.00;;;;;;;;;;20864884;28;20217;-74
2023/12/04 20:15:14;;;;;;;16.87;10.40;;;;;;;;;;20836359;28;20236;-72
2023/12/04 20:25:16;;;;;;;18.20;11.23;;;;;;;;;;20836190;28;20285;-74
2023/12/04 20:35:18;;;;;;;18.20;10.80;;;;;;;;;;20835745;28;20236;-72
2023/12/04 20:45:26;;;;;;;16.40;9.97;;;;;;;;;;20840455;28;20202;-71
2023/12/04 20:55:28;;;;;;;20.00;11.10;;;;;;;;;;20832829;28;20234;-68
2023/12/04 21:05:30;;;;;;;19.70;11.03;;;;;;;;;;20865971;28;20215;-66
2023/12/04 21:15:34;;;;;;;19.40;10.83;;;;;;;;;;20831787;28;20250;-75
2023/12/04 21:25:37;;;;;;;19.73;11.17;;;;;;;;;;20832884;28;20299;-76
2023/12/04 21:35:41;;;;;;;23.97;13.23;;;;;;;;;;20830201;28;20294;-76
2023/12/04 21:45:44;;;;;;;18.87;11.07;;;;;;;;;;20827775;28;20218;-74
2023/12/04 21:55:46;;;;;;;19.53;10.90;;;;;;;;;;20828621;28;20235;-66
2023/12/04 22:05:49;;;;;;;17.60;10.97;;;;;;;;;;20828437;28;20682;-66
2023/12/04 22:15:51;;;;;;;21.63;11.13;;;;;;;;;;20829879;28;20251;-68
2023/12/04 22:25:54;;;;;;;20.30;11.70;;;;;;;;;;20830112;28;20208;-68
2023/12/04 22:35:56;;;;;;;17.73;11.27;;;;;;;;;;20829096;28;20738;-68
2023/12/04 22:45:59;;;;;;;21.97;11.30;;;;;;;;;;20828741;28;20274;-74
2023/12/04 22:56:01;;;;;;;20.43;12.00;;;;;;;;;;20828699;28;20237;-69
2023/12/04 23:06:03;;;;;;;20.67;12.90;;;;;;;;;;20827844;28;20215;-75
2023/12/04 23:16:06;;;;;;;20.87;12.47;;;;;;;;;;20835835;28;20241;-74
2023/12/04 23:26:08;;;;;;;23.00;12.80;;;;;;;;;;20842706;28;20573;-75
2023/12/04 23:36:11;;;;;;;21.97;12.37;;;;;;;;;;20841556;28;20752;-73
2023/12/04 23:46:13;;;;;;;22.57;13.07;;;;;;;;;;20840619;28;20207;-74
2023/12/04 23:56:15;;;;;;;23.77;13.57;;;;;;;;;;20840265;28;20656;-75
